レイキャビク/ケフラヴィーク の空港の天気 - METARとTAF

ケフラヴィーク国際空港 ( BIKF / KEF ) - アイスランド ケプラヴィーク
飛行場実況気象(Metar)
観測時間03/28 21:00 GMT (03/28 21:00 UTC)
風向・風速東 6m/s
視程10km以上
天気現象周辺でしゅう雨
全天の4割程度の雲 雲底高度 1220m
全天の8割程度の雲 雲底高度 2740m
全天の8割程度の雲 雲底高度 3660m
気温5℃
湿度75%
気圧1021hPa
METARBIKF 282100Z 10012KT 9999 VCSH SCT040 BKN090 BKN120 05/01 Q1021
過去の天気等 Google飛行場航空写真 Wunderground天気予報

過去48時間のMETAR

飛行場予報(TAF)
発表時間: 3/28 19:30 GMT (3/28 19:30 UTC)
予報対象時間: 28日21時 GMT ~ 29日21時 GMT
風向・風速東南東 8m/s
視程10km以上
全天の4割程度の雲 雲底高度 610m
全天の8割程度の雲 雲底高度 910m
TAF BIKF 281930Z 2821/2921 11015KT 9999 SCT020 BKN030 TX06/2915Z TN01/2905Z